createdAt,value
2023-02-11T00:01:20.302Z,28.27
2023-02-11T00:03:47.590Z,24.63
2023-02-11T00:06:14.833Z,25.52
2023-02-11T00:08:42.267Z,28.35
2023-02-11T00:11:13.806Z,22.38
2023-02-11T00:13:41.937Z,28.02
2023-02-11T00:16:10.768Z,25.23
2023-02-11T00:18:38.472Z,31.45
2023-02-11T00:21:16.887Z,29.30
2023-02-11T00:23:45.497Z,28.33
2023-02-11T00:26:15.037Z,24.27
2023-02-11T00:28:43.191Z,28.27
2023-02-11T00:31:11.560Z,27.58
2023-02-11T00:33:39.186Z,26.27
2023-02-11T00:36:15.154Z,21.10
2023-02-11T00:38:46.121Z,31.73
2023-02-11T00:41:14.008Z,23.90
2023-02-11T00:43:41.456Z,21.58
2023-02-11T00:46:09.076Z,21.60
2023-02-11T00:48:36.656Z,21.92
2023-02-11T00:51:04.400Z,17.17
2023-02-11T00:53:32.662Z,15.80
2023-02-11T00:56:01.235Z,30.02
2023-02-11T00:58:29.035Z,55.92
2023-02-11T01:00:56.710Z,41.92
2023-02-11T01:03:25.496Z,51.17
2023-02-11T01:05:52.728Z,41.00
2023-02-11T01:08:20.355Z,33.92
2023-02-11T01:11:01.992Z,34.00
2023-02-11T01:13:31.207Z,24.80
2023-02-11T01:15:58.148Z,49.92
2023-02-11T01:18:25.821Z,39.47
2023-02-11T01:20:53.370Z,48.67
2023-02-11T01:23:21.624Z,56.15
2023-02-11T01:25:48.859Z,50.20
2023-02-11T01:28:26.879Z,37.45
2023-02-11T01:30:54.215Z,34.00
2023-02-11T01:33:22.742Z,28.80
2023-02-11T01:35:50.236Z,26.80
2023-02-11T01:38:26.006Z,21.98
2023-02-11T01:40:54.915Z,21.70
2023-02-11T01:43:25.695Z,19.80
2023-02-11T01:46:01.098Z,19.80
2023-02-11T01:48:30.201Z,23.60
2023-02-11T01:51:05.030Z,31.13
2023-02-11T01:53:53.095Z,20.58
2023-02-11T01:56:39.753Z,20.87
2023-02-11T01:59:13.350Z,18.85
2023-02-11T02:01:45.043Z,20.98
2023-02-11T02:04:15.138Z,18.67
2023-02-11T02:06:52.160Z,20.98
2023-02-11T02:09:25.729Z,21.27
2023-02-11T02:11:52.761Z,59.42
2023-02-11T02:14:20.706Z,58.08
2023-02-11T02:16:47.912Z,38.13
2023-02-11T02:19:24.308Z,29.35
2023-02-11T02:22:21.940Z,26.17
2023-02-11T02:24:52.219Z,21.73
2023-02-11T02:27:29.604Z,25.48
2023-02-11T02:30:24.462Z,21.38
2023-02-11T02:33:05.822Z,55.88
2023-02-11T02:35:55.989Z,63.07
2023-02-11T02:38:31.731Z,50.35
2023-02-11T02:41:10.086Z,60.13
2023-02-11T02:43:41.806Z,63.72
2023-02-11T02:46:22.340Z,57.75
2023-02-11T02:48:50.210Z,64.80
2023-02-11T02:51:46.815Z,61.22
2023-02-11T02:54:25.788Z,43.28
2023-02-11T02:57:04.882Z,34.13
2023-02-11T02:59:37.677Z,27.13
2023-02-11T03:02:18.088Z,20.97
2023-02-11T03:04:54.120Z,23.75
2023-02-11T03:07:41.815Z,20.98
2023-02-11T03:10:19.747Z,36.22
2023-02-11T03:12:48.608Z,57.15
2023-02-11T03:15:18.161Z,60.17
2023-02-11T03:17:48.789Z,72.82
2023-02-11T03:20:18.989Z,63.83
2023-02-11T03:22:55.779Z,40.85
2023-02-11T03:25:29.458Z,27.02
2023-02-11T03:28:00.392Z,24.93
2023-02-11T03:30:35.373Z,24.08
2023-02-11T03:33:24.288Z,20.33
2023-02-11T03:35:55.855Z,17.58
2023-02-11T03:38:33.800Z,19.35
2023-02-11T03:41:02.672Z,19.73
2023-02-11T03:43:46.444Z,13.77
2023-02-11T03:46:17.197Z,18.00
2023-02-11T03:48:49.653Z,20.35
2023-02-11T03:51:17.608Z,22.20
2023-02-11T03:53:46.672Z,19.37
2023-02-11T03:56:19.648Z,17.90
2023-02-11T03:58:48.515Z,19.35
2023-02-11T04:01:16.090Z,21.00
2023-02-11T04:03:43.314Z,58.38
2023-02-11T04:06:10.263Z,57.67
2023-02-11T04:08:37.450Z,59.20
2023-02-11T04:11:04.341Z,63.47
2023-02-11T04:13:31.671Z,64.85
2023-02-11T04:15:58.504Z,60.78
2023-02-11T04:18:25.684Z,67.17
2023-02-11T04:20:52.510Z,45.88
2023-02-11T04:23:19.664Z,48.47
2023-02-11T04:25:46.508Z,43.20
2023-02-11T04:28:14.014Z,30.27
2023-02-11T04:30:40.889Z,27.33
2023-02-11T04:33:08.125Z,39.15
2023-02-11T04:35:34.942Z,46.20
2023-02-11T04:38:02.087Z,48.90
2023-02-11T04:40:28.874Z,44.97
2023-02-11T04:42:55.977Z,27.27
2023-02-11T04:45:23.066Z,23.48
2023-02-11T04:47:50.266Z,29.70
2023-02-11T04:50:17.430Z,26.00
2023-02-11T04:52:44.580Z,30.63
2023-02-11T04:55:11.769Z,52.17
2023-02-11T04:57:38.867Z,57.63
2023-02-11T05:00:06.627Z,53.80
2023-02-11T05:02:33.910Z,58.28
2023-02-11T05:05:00.781Z,58.95
2023-02-11T05:07:28.367Z,53.00
2023-02-11T05:09:55.205Z,41.72
2023-02-11T05:12:22.431Z,26.08
2023-02-11T05:14:49.217Z,33.17
2023-02-11T05:17:16.496Z,28.48
2023-02-11T05:19:43.396Z,23.97
2023-02-11T05:22:10.583Z,23.92
2023-02-11T05:24:37.437Z,21.20
2023-02-11T05:27:04.580Z,20.77
2023-02-11T05:29:31.443Z,19.52
2023-02-11T05:32:00.232Z,18.47
2023-02-11T05:34:27.320Z,18.42
2023-02-11T05:36:54.717Z,15.55
2023-02-11T05:39:21.601Z,20.10
2023-02-11T05:41:48.723Z,20.73
2023-02-11T05:44:15.649Z,23.73
2023-02-11T05:46:42.847Z,24.65
2023-02-11T05:49:09.838Z,22.63
2023-02-11T05:51:37.036Z,42.13
2023-02-11T05:54:03.942Z,24.92
2023-02-11T05:56:31.202Z,24.40
2023-02-11T05:58:59.937Z,20.10
2023-02-11T06:01:27.284Z,21.65
2023-02-11T06:03:54.414Z,17.98
2023-02-11T06:06:21.687Z,21.83
2023-02-11T06:08:48.492Z,28.17
2023-02-11T06:11:16.288Z,27.95
2023-02-11T06:13:43.581Z,23.27
2023-02-11T06:16:10.858Z,24.23
2023-02-11T06:18:37.767Z,20.60
2023-02-11T06:21:10.129Z,22.37
2023-02-11T06:23:37.930Z,23.35
2023-02-11T06:26:07.075Z,26.05
2023-02-11T06:28:36.031Z,20.55
2023-02-11T06:31:07.159Z,27.73
2023-02-11T06:33:34.682Z,36.03
2023-02-11T06:36:02.438Z,26.50
2023-02-11T06:38:29.355Z,20.80
2023-02-11T06:40:56.923Z,22.08
2023-02-11T06:43:23.737Z,17.33
2023-02-11T06:45:55.764Z,18.93
2023-02-11T06:48:23.742Z,24.13
2023-02-11T06:50:50.858Z,34.50
2023-02-11T06:53:17.836Z,28.15
2023-02-11T06:55:44.994Z,20.38
2023-02-11T06:58:11.825Z,22.50
2023-02-11T07:00:39.094Z,44.55
2023-02-11T07:03:05.973Z,52.88
2023-02-11T07:05:34.395Z,55.38
2023-02-11T07:08:01.331Z,55.35
2023-02-11T07:10:28.510Z,61.73
2023-02-11T07:12:57.779Z,65.93
2023-02-11T07:15:26.008Z,49.53
2023-02-11T07:17:52.897Z,42.08
2023-02-11T07:20:20.103Z,34.92
2023-02-11T07:22:46.941Z,29.43
2023-02-11T07:25:14.156Z,37.30
2023-02-11T07:27:40.941Z,46.53
2023-02-11T07:30:08.735Z,45.78
2023-02-11T07:32:35.567Z,46.22
2023-02-11T07:35:04.019Z,46.97
2023-02-11T07:37:31.043Z,35.53
2023-02-11T07:39:58.149Z,40.67
2023-02-11T07:42:24.943Z,43.80
2023-02-11T07:44:52.171Z,47.40
2023-02-11T07:47:19.111Z,71.30
2023-02-11T07:49:46.335Z,64.10
2023-02-11T07:52:13.135Z,70.25
2023-02-11T07:54:40.550Z,62.58
2023-02-11T07:57:07.363Z,47.08
2023-02-11T07:59:34.489Z,52.27
2023-02-11T08:02:01.586Z,57.65
2023-02-11T08:04:28.802Z,62.10
2023-02-11T08:06:59.274Z,59.47
2023-02-11T08:09:26.570Z,50.83
2023-02-11T08:11:53.384Z,61.13
2023-02-11T08:14:20.712Z,54.25
2023-02-11T08:16:47.709Z,64.22
2023-02-11T08:19:16.763Z,51.53
2023-02-11T08:21:43.935Z,53.08
2023-02-11T08:24:11.272Z,64.27
2023-02-11T08:26:38.750Z,52.78
2023-02-11T08:29:11.840Z,60.70
2023-02-11T08:31:42.308Z,58.95
2023-02-11T08:34:11.611Z,57.63
2023-02-11T08:36:39.614Z,55.27
2023-02-11T08:39:18.604Z,50.42
2023-02-11T08:41:49.117Z,50.95
2023-02-11T08:44:17.558Z,56.72
2023-02-11T08:46:44.414Z,50.78
2023-02-11T08:49:11.685Z,51.17
2023-02-11T08:51:38.514Z,51.30
2023-02-11T08:54:09.565Z,53.67
2023-02-11T08:56:37.879Z,54.70
2023-02-11T08:59:05.492Z,60.88
2023-02-11T09:01:32.488Z,58.97
2023-02-11T09:04:01.226Z,54.08
2023-02-11T09:06:28.537Z,51.38
2023-02-11T09:08:57.966Z,56.58
2023-02-11T09:11:30.835Z,54.45
2023-02-11T09:13:58.175Z,53.87
2023-02-11T09:16:30.267Z,53.00
2023-02-11T09:18:59.677Z,51.38
2023-02-11T09:21:26.895Z,56.80
2023-02-11T09:23:54.340Z,57.45
2023-02-11T09:26:41.653Z,62.50
2023-02-11T09:29:09.310Z,58.88
2023-02-11T09:31:36.397Z,59.72
2023-02-11T09:34:05.824Z,63.83
2023-02-11T09:36:37.540Z,60.03
2023-02-11T09:39:07.357Z,55.67
2023-02-11T09:41:42.659Z,57.53
2023-02-11T09:44:20.133Z,54.05
2023-02-11T09:47:03.474Z,57.38
2023-02-11T09:49:45.699Z,54.85
2023-02-11T09:52:25.625Z,61.83
2023-02-11T09:55:21.840Z,63.83
2023-02-11T09:57:49.163Z,68.13
2023-02-11T10:00:32.406Z,58.50
2023-02-11T10:03:02.288Z,52.25
2023-02-11T10:05:53.671Z,49.03
2023-02-11T10:08:25.909Z,46.97
2023-02-11T10:11:07.697Z,48.45
2023-02-11T10:13:56.143Z,45.85
2023-02-11T10:16:52.105Z,38.00
2023-02-11T10:19:38.911Z,40.57
2023-02-11T10:22:18.830Z,43.30
2023-02-11T10:24:55.354Z,47.95
2023-02-11T10:27:30.760Z,41.03
2023-02-11T10:30:21.188Z,37.67
2023-02-11T10:33:27.001Z,36.07
2023-02-11T10:35:54.352Z,40.92
2023-02-11T10:38:21.646Z,39.90
2023-02-11T10:40:48.632Z,41.35
2023-02-11T10:43:17.591Z,39.35
2023-02-11T10:45:48.761Z,37.43
2023-02-11T10:48:52.870Z,44.55
2023-02-11T10:51:28.467Z,40.45
2023-02-11T10:54:04.651Z,45.00
2023-02-11T10:56:34.435Z,43.95
2023-02-11T10:59:21.660Z,55.07
2023-02-11T11:01:56.426Z,55.50
2023-02-11T11:04:29.748Z,54.00
2023-02-11T11:06:58.863Z,48.60
2023-02-11T11:09:43.259Z,50.60
2023-02-11T11:12:45.312Z,46.77
2023-02-11T11:15:18.902Z,38.50
2023-02-11T11:17:46.599Z,49.70
2023-02-11T11:20:25.227Z,42.20
2023-02-11T11:23:08.856Z,40.60
2023-02-11T11:25:39.940Z,37.97
2023-02-11T11:28:16.799Z,48.10
2023-02-11T11:30:44.150Z,44.60
2023-02-11T11:33:29.645Z,43.13
2023-02-11T11:36:03.267Z,45.83
2023-02-11T11:38:31.678Z,46.20
2023-02-11T11:41:27.756Z,48.70
2023-02-11T11:43:59.059Z,49.35
2023-02-11T11:46:39.242Z,51.35
2023-02-11T11:49:22.324Z,51.67
2023-02-11T11:52:00.186Z,57.97
2023-02-11T11:54:28.412Z,60.47
2023-02-11T11:57:04.383Z,56.42
2023-02-11T11:59:32.464Z,64.10
2023-02-11T12:02:30.123Z,54.95
2023-02-11T12:05:03.567Z,51.53
2023-02-11T12:07:40.373Z,55.73
2023-02-11T12:10:25.967Z,54.80
2023-02-11T12:13:03.759Z,54.60
2023-02-11T12:15:56.782Z,54.88
2023-02-11T12:18:47.427Z,52.35
2023-02-11T12:21:34.018Z,49.87
2023-02-11T12:24:40.976Z,50.65
2023-02-11T12:27:28.777Z,44.70
2023-02-11T12:30:14.824Z,51.88
2023-02-11T12:32:59.991Z,43.45
2023-02-11T12:35:49.051Z,44.27
2023-02-11T12:38:26.258Z,44.22
2023-02-11T12:41:43.569Z,50.65
2023-02-11T12:44:23.751Z,41.38
2023-02-11T12:47:02.105Z,48.72
2023-02-11T12:50:06.956Z,45.23
2023-02-11T12:53:08.475Z,44.90
2023-02-11T12:55:40.426Z,43.67
2023-02-11T12:58:19.181Z,41.35
2023-02-11T13:00:51.677Z,40.72
2023-02-11T13:03:25.612Z,49.07
2023-02-11T13:05:58.077Z,47.53
2023-02-11T13:08:37.220Z,50.10
2023-02-11T13:11:14.396Z,45.25
2023-02-11T13:13:55.181Z,39.95
2023-02-11T13:16:37.020Z,44.77
2023-02-11T13:19:19.225Z,41.75
2023-02-11T13:21:49.492Z,47.25
2023-02-11T13:24:46.864Z,47.97
2023-02-11T13:27:37.132Z,41.33
2023-02-11T13:30:22.431Z,39.90
2023-02-11T13:32:58.365Z,46.85
2023-02-11T13:35:33.151Z,46.17
2023-02-11T13:38:02.316Z,50.10
2023-02-11T13:40:36.719Z,48.58
2023-02-11T13:43:06.369Z,53.47
2023-02-11T13:45:44.210Z,48.60
2023-02-11T13:48:24.319Z,43.13
2023-02-11T13:50:59.224Z,46.60
2023-02-11T13:53:27.612Z,57.78
2023-02-11T13:56:07.948Z,56.37
2023-02-11T13:58:39.983Z,44.53
2023-02-11T14:01:07.899Z,42.50
2023-02-11T14:03:58.093Z,47.13
2023-02-11T14:06:48.352Z,48.00
2023-02-11T14:09:17.405Z,44.90
2023-02-11T14:11:46.355Z,40.33
2023-02-11T14:14:24.087Z,47.35
2023-02-11T14:17:00.394Z,44.17
2023-02-11T14:19:44.949Z,45.97
2023-02-11T14:22:37.799Z,46.43
2023-02-11T14:25:14.247Z,45.80
2023-02-11T14:27:44.928Z,38.63
2023-02-11T14:30:53.619Z,38.72
2023-02-11T14:33:30.293Z,41.47
2023-02-11T14:36:07.974Z,37.60
2023-02-11T14:38:54.199Z,38.63
2023-02-11T14:41:29.437Z,41.83
2023-02-11T14:44:04.348Z,45.13
2023-02-11T14:46:33.443Z,71.75
2023-02-11T14:49:03.342Z,69.93
2023-02-11T14:51:35.082Z,54.90
2023-02-11T14:54:17.214Z,46.13
2023-02-11T14:56:44.828Z,57.15
2023-02-11T14:59:21.332Z,43.28
2023-02-11T15:01:56.500Z,63.30
2023-02-11T15:04:30.387Z,54.65
2023-02-11T15:07:00.117Z,40.30
2023-02-11T15:09:52.254Z,39.15
2023-02-11T15:12:23.911Z,38.72
2023-02-11T15:14:55.288Z,43.10
2023-02-11T15:17:26.145Z,39.17
2023-02-11T15:19:57.005Z,42.75
2023-02-11T15:22:28.263Z,59.72
2023-02-11T15:25:10.884Z,39.28
2023-02-11T15:27:50.227Z,38.07
2023-02-11T15:30:23.231Z,48.50
2023-02-11T15:32:51.706Z,42.92
2023-02-11T15:35:19.665Z,39.38
2023-02-11T15:37:48.841Z,37.03
2023-02-11T15:40:29.941Z,37.63
2023-02-11T15:43:06.213Z,38.17
2023-02-11T15:45:42.820Z,35.88
2023-02-11T15:48:21.687Z,35.45
2023-02-11T15:50:54.272Z,36.53
2023-02-11T15:53:31.515Z,37.40
2023-02-11T15:56:09.963Z,37.35
2023-02-11T15:58:42.693Z,36.45
2023-02-11T16:01:11.017Z,38.50
2023-02-11T16:03:38.821Z,37.42
2023-02-11T16:06:20.923Z,37.90
2023-02-11T16:09:03.650Z,34.20
2023-02-11T16:11:38.484Z,36.72
2023-02-11T16:14:33.033Z,37.22
2023-02-11T16:17:13.222Z,28.70
2023-02-11T16:19:47.816Z,33.77
2023-02-11T16:22:19.584Z,34.00
2023-02-11T16:24:49.136Z,31.38
2023-02-11T16:27:39.612Z,33.17
2023-02-11T16:30:23.969Z,31.73
2023-02-11T16:32:53.489Z,40.03
2023-02-11T16:35:21.124Z,38.35
2023-02-11T16:37:48.550Z,41.65
2023-02-11T16:40:16.051Z,39.03
2023-02-11T16:42:43.413Z,35.50
2023-02-11T16:45:10.243Z,37.17
2023-02-11T16:47:41.113Z,38.15
2023-02-11T16:50:11.123Z,38.05
2023-02-11T16:52:38.477Z,43.25
2023-02-11T16:55:06.286Z,36.42
2023-02-11T16:57:33.516Z,40.13
2023-02-11T17:00:00.803Z,42.00
2023-02-11T17:02:31.025Z,40.00
2023-02-11T17:05:01.149Z,38.90
2023-02-11T17:07:30.439Z,38.50
2023-02-11T17:09:57.562Z,38.47
2023-02-11T17:12:25.677Z,38.40
2023-02-11T17:14:53.704Z,42.20
2023-02-11T17:17:23.273Z,38.22
2023-02-11T17:19:51.311Z,41.17
2023-02-11T17:22:19.443Z,38.67
2023-02-11T17:24:46.231Z,40.75
2023-02-11T17:27:15.498Z,35.83
2023-02-11T17:29:43.325Z,33.55
2023-02-11T17:32:10.812Z,36.60
2023-02-11T17:34:37.806Z,38.97
2023-02-11T17:37:09.246Z,33.45
2023-02-11T17:39:37.449Z,53.67
2023-02-11T17:42:06.298Z,47.92
2023-02-11T17:44:34.284Z,43.92
2023-02-11T17:47:01.832Z,42.43
2023-02-11T17:49:28.657Z,38.35
2023-02-11T17:51:55.957Z,38.90
2023-02-11T17:54:23.345Z,37.38
2023-02-11T17:56:51.229Z,37.22
2023-02-11T17:59:18.219Z,33.97
2023-02-11T18:01:46.833Z,38.05
2023-02-11T18:04:17.671Z,37.92
2023-02-11T18:06:46.342Z,32.85
2023-02-11T18:09:13.694Z,36.05
2023-02-11T18:11:42.558Z,41.77
2023-02-11T18:14:10.255Z,39.50
2023-02-11T18:16:39.843Z,57.58
2023-02-11T18:19:07.721Z,50.50
2023-02-11T18:21:36.073Z,37.83
2023-02-11T18:24:06.818Z,47.13
2023-02-11T18:26:35.685Z,45.13
2023-02-11T18:29:05.086Z,44.60
2023-02-11T18:31:35.460Z,46.72
2023-02-11T18:34:06.004Z,44.60
2023-02-11T18:36:34.053Z,43.30
2023-02-11T18:39:01.486Z,46.45
2023-02-11T18:41:29.923Z,41.88
2023-02-11T18:43:58.753Z,38.80
2023-02-11T18:46:25.998Z,38.63
2023-02-11T18:48:56.267Z,56.43
2023-02-11T18:51:24.628Z,68.47
2023-02-11T18:53:51.564Z,84.45
2023-02-11T18:56:22.336Z,68.97
2023-02-11T18:58:49.629Z,81.15
2023-02-11T19:01:27.527Z,89.97
2023-02-11T19:03:57.420Z,97.63
2023-02-11T19:06:27.420Z,99.15
2023-02-11T19:08:59.337Z,68.40
2023-02-11T19:11:49.346Z,53.28
2023-02-11T19:14:23.209Z,51.83
2023-02-11T19:16:55.911Z,45.80
2023-02-11T19:19:25.847Z,42.67
2023-02-11T19:21:56.203Z,87.75
2023-02-11T19:24:24.788Z,90.60
2023-02-11T19:26:55.408Z,87.00
2023-02-11T19:29:22.786Z,69.75
2023-02-11T19:31:51.935Z,61.08
2023-02-11T19:34:22.611Z,57.22
2023-02-11T19:36:51.368Z,75.72
2023-02-11T19:39:18.944Z,93.63
2023-02-11T19:41:47.530Z,93.78
2023-02-11T19:44:15.187Z,95.15
2023-02-11T19:46:43.673Z,94.47
2023-02-11T19:49:14.719Z,103.70
2023-02-11T19:51:43.818Z,87.03
2023-02-11T19:54:11.856Z,89.68
2023-02-11T19:56:41.060Z,100.75
2023-02-11T19:59:09.139Z,62.38
2023-02-11T20:01:41.625Z,52.88
2023-02-11T20:04:09.205Z,49.53
2023-02-11T20:06:37.706Z,37.05
2023-02-11T20:09:08.057Z,39.28
2023-02-11T20:11:37.124Z,39.45
2023-02-11T20:14:05.206Z,38.97
2023-02-11T20:16:47.385Z,34.83
2023-02-11T20:19:19.652Z,63.10
2023-02-11T20:21:48.621Z,74.47
2023-02-11T20:24:18.332Z,85.47
2023-02-11T20:26:48.573Z,54.08
2023-02-11T20:29:18.073Z,51.23
2023-02-11T20:31:46.364Z,57.72
2023-02-11T20:34:13.590Z,48.55
2023-02-11T20:36:42.583Z,45.90
2023-02-11T20:39:11.274Z,38.60
2023-02-11T20:41:40.161Z,35.00
2023-02-11T20:44:10.270Z,43.55
2023-02-11T20:46:43.125Z,38.50
2023-02-11T20:49:12.067Z,37.67
2023-02-11T20:51:40.654Z,35.97
2023-02-11T20:54:15.110Z,37.77
2023-02-11T20:56:42.464Z,38.65
2023-02-11T20:59:11.842Z,37.78
2023-02-11T21:01:41.622Z,35.20
2023-02-11T21:04:18.135Z,48.95
2023-02-11T21:06:49.995Z,54.23
2023-02-11T21:09:20.037Z,39.63
2023-02-11T21:11:49.465Z,40.70
2023-02-11T21:14:16.275Z,49.78
2023-02-11T21:16:43.448Z,78.22
2023-02-11T21:19:11.195Z,68.93
2023-02-11T21:21:42.613Z,54.45
2023-02-11T21:24:11.318Z,80.22
2023-02-11T21:26:39.589Z,81.22
2023-02-11T21:29:08.111Z,70.22
2023-02-11T21:31:36.937Z,77.63
2023-02-11T21:34:09.973Z,74.45
2023-02-11T21:36:37.814Z,63.58
2023-02-11T21:39:06.036Z,54.67
2023-02-11T21:41:33.951Z,45.65
2023-02-11T21:44:04.213Z,47.00
2023-02-11T21:46:32.148Z,82.25
2023-02-11T21:49:00.521Z,83.07
2023-02-11T21:51:28.471Z,92.43
2023-02-11T21:54:01.478Z,99.60
2023-02-11T21:56:30.968Z,94.00
2023-02-11T21:58:59.581Z,64.93
2023-02-11T22:01:29.824Z,47.60
2023-02-11T22:03:57.255Z,43.08
2023-02-11T22:06:31.264Z,38.33
2023-02-11T22:08:59.088Z,36.90
2023-02-11T22:11:26.505Z,35.88
2023-02-11T22:13:55.648Z,29.75
2023-02-11T22:16:23.579Z,38.83
2023-02-11T22:18:51.566Z,28.73
2023-02-11T22:21:21.968Z,34.40
2023-02-11T22:23:49.326Z,31.80
2023-02-11T22:26:19.159Z,33.78
2023-02-11T22:28:47.201Z,28.05
2023-02-11T22:31:17.304Z,28.77
2023-02-11T22:33:44.495Z,44.40
2023-02-11T22:36:18.916Z,54.85
2023-02-11T22:38:45.853Z,44.28
2023-02-11T22:41:13.588Z,35.72
2023-02-11T22:43:42.968Z,49.55
2023-02-11T22:46:12.912Z,50.23
2023-02-11T22:48:40.348Z,38.85
2023-02-11T22:51:09.616Z,51.20
2023-02-11T22:53:36.469Z,79.78
2023-02-11T22:56:09.140Z,67.50
2023-02-11T22:58:36.866Z,72.40
2023-02-11T23:01:05.501Z,52.15
2023-02-11T23:03:33.761Z,53.60
2023-02-11T23:06:01.451Z,64.07
2023-02-11T23:08:29.445Z,46.85
2023-02-11T23:10:57.087Z,31.80
2023-02-11T23:13:24.043Z,34.20
2023-02-11T23:15:51.222Z,34.55
2023-02-11T23:18:18.031Z,29.92
2023-02-11T23:20:45.345Z,34.58
2023-02-11T23:23:12.194Z,29.40
2023-02-11T23:25:44.056Z,32.35
2023-02-11T23:28:12.504Z,28.52
2023-02-11T23:30:39.737Z,32.80
2023-02-11T23:33:06.530Z,31.88
2023-02-11T23:35:33.672Z,32.10
2023-02-11T23:38:00.481Z,30.52
2023-02-11T23:40:27.741Z,35.30
2023-02-11T23:42:54.653Z,39.00
2023-02-11T23:45:22.733Z,41.00
2023-02-11T23:47:49.804Z,33.23
2023-02-11T23:50:17.315Z,29.33
2023-02-11T23:52:44.460Z,35.05
2023-02-11T23:55:11.702Z,25.85
2023-02-11T23:57:38.542Z,28.20
